createdAt,value
2018-03-29T00:01:16.663Z,99230.03
2018-03-29T00:03:44.325Z,99231.41
2018-03-29T00:06:12.185Z,99240.21
2018-03-29T00:08:39.857Z,99238.56
2018-03-29T00:11:07.619Z,99246.37
2018-03-29T00:13:35.292Z,99256.00
2018-03-29T00:16:03.045Z,99252.23
2018-03-29T00:18:30.809Z,99253.48
2018-03-29T00:20:58.471Z,99262.77
2018-03-29T00:23:26.135Z,99263.36
2018-03-29T00:25:53.897Z,99273.09
2018-03-29T00:28:21.663Z,99276.98
2018-03-29T00:30:49.374Z,99287.16
2018-03-29T00:33:17.099Z,99288.30
2018-03-29T00:35:44.805Z,99292.20
2018-03-29T00:38:12.618Z,99290.13
2018-03-29T00:40:40.281Z,99294.75
2018-03-29T00:43:08.054Z,99298.55
2018-03-29T00:45:35.705Z,99292.27
2018-03-29T00:48:03.414Z,99291.84
2018-03-29T00:50:31.137Z,99284.59
2018-03-29T00:56:00.761Z,99294.94
2018-03-29T00:58:28.525Z,99300.39
2018-03-29T01:00:56.180Z,99294.30
2018-03-29T01:03:23.952Z,99298.19
2018-03-29T01:05:51.715Z,99290.28
2018-03-29T01:08:19.479Z,99287.77
2018-03-29T01:10:47.142Z,99290.85
2018-03-29T01:13:15.009Z,99299.93
2018-03-29T01:15:42.776Z,99311.80
2018-03-29T01:18:10.490Z,99304.70
2018-03-29T01:20:38.200Z,99318.08
2018-03-29T01:23:05.861Z,99307.59
2018-03-29T01:25:33.530Z,99315.73
2018-03-29T01:28:01.257Z,99323.08
2018-03-29T01:30:28.950Z,99319.27
2018-03-29T01:32:56.661Z,99324.91
2018-03-29T01:35:24.383Z,99333.28
2018-03-29T01:37:52.089Z,99331.14
2018-03-29T01:40:19.905Z,99334.67
2018-03-29T01:42:47.564Z,99336.97
2018-03-29T01:45:15.398Z,99334.84
2018-03-29T01:47:43.097Z,99333.80
2018-03-29T01:50:10.963Z,99344.91
2018-03-29T01:52:38.829Z,99346.83
2018-03-29T01:55:06.600Z,99347.94
2018-03-29T01:57:34.256Z,99352.67
2018-03-29T02:00:02.020Z,99346.95
2018-03-29T02:02:29.676Z,99348.70
2018-03-29T02:04:57.350Z,99350.52
2018-03-29T02:07:25.006Z,99347.78
2018-03-29T02:09:52.669Z,99359.84
2018-03-29T02:12:20.370Z,99356.01
2018-03-29T02:14:48.197Z,99364.14
2018-03-29T02:17:15.962Z,99359.06
2018-03-29T02:19:43.828Z,99355.16
2018-03-29T02:22:11.489Z,99356.70
2018-03-29T02:24:39.254Z,99356.97
2018-03-29T02:27:06.969Z,99361.84
2018-03-29T02:29:34.784Z,99354.31
2018-03-29T02:32:02.446Z,99362.30
2018-03-29T02:34:30.168Z,99370.24
2018-03-29T02:36:57.891Z,99376.37
2018-03-29T02:39:25.575Z,99375.13
2018-03-29T02:41:53.402Z,99373.59
2018-03-29T02:44:21.063Z,99374.78
2018-03-29T02:46:48.930Z,99371.45
2018-03-29T02:49:16.592Z,99374.20
2018-03-29T02:51:44.248Z,99377.63
2018-03-29T02:54:11.972Z,99381.41
2018-03-29T02:56:39.781Z,99370.22
2018-03-29T02:59:07.447Z,99381.61
2018-03-29T03:01:35.107Z,99376.30
2018-03-29T03:04:02.812Z,99381.53
2018-03-29T03:06:30.536Z,99377.27
2018-03-29T03:08:58.196Z,99384.56
2018-03-29T03:11:25.913Z,99383.98
2018-03-29T03:13:53.724Z,99383.22
2018-03-29T03:16:21.385Z,99376.45
2018-03-29T03:18:49.150Z,99374.19
2018-03-29T03:21:16.811Z,99374.88
2018-03-29T03:23:44.606Z,99379.62
2018-03-29T03:26:12.347Z,99387.36
2018-03-29T03:28:40.107Z,99394.09
2018-03-29T03:31:07.973Z,99397.69
2018-03-29T03:33:35.737Z,99406.36
2018-03-29T03:36:03.450Z,99410.96
2018-03-29T03:38:31.264Z,99411.53
2018-03-29T03:40:58.928Z,99409.48
2018-03-29T03:43:26.653Z,99420.69
2018-03-29T03:45:54.354Z,99417.64
2018-03-29T03:48:22.220Z,99421.65
2018-03-29T03:50:49.953Z,99419.02
2018-03-29T03:53:17.749Z,99422.78
2018-03-29T03:55:45.463Z,99423.89
2018-03-29T03:58:13.177Z,99431.08
2018-03-29T04:00:40.940Z,99425.44
2018-03-29T04:03:08.602Z,99428.83
2018-03-29T04:05:36.257Z,99434.64
2018-03-29T04:08:04.028Z,99432.84
2018-03-29T04:10:31.691Z,99441.49
2018-03-29T04:12:59.454Z,99439.56
2018-03-29T04:15:27.117Z,99437.89
2018-03-29T04:17:54.778Z,99443.38
2018-03-29T04:20:22.653Z,99442.55
2018-03-29T04:22:50.366Z,99438.91
2018-03-29T04:25:18.174Z,99447.95
2018-03-29T04:27:45.894Z,99441.45
2018-03-29T04:30:13.600Z,99444.09
2018-03-29T04:32:41.302Z,99441.19
2018-03-29T04:35:09.027Z,99451.02
2018-03-29T04:37:36.732Z,99446.33
2018-03-29T04:40:04.454Z,99447.80
2018-03-29T04:42:32.117Z,99453.25
2018-03-29T04:44:59.981Z,99465.07
2018-03-29T04:47:27.707Z,99464.23
2018-03-29T04:49:55.511Z,99461.07
2018-03-29T04:52:23.277Z,99465.94
2018-03-29T04:54:51.039Z,99457.43
2018-03-29T04:57:18.803Z,99458.83
2018-03-29T04:59:46.568Z,99467.45
2018-03-29T05:02:14.273Z,99467.51
2018-03-29T05:04:41.995Z,99466.16
2018-03-29T05:07:09.760Z,99466.43
2018-03-29T05:09:37.627Z,99454.95
2018-03-29T05:12:05.390Z,99469.05
2018-03-29T05:14:33.154Z,99471.70
2018-03-29T05:17:01.024Z,99459.55
2018-03-29T05:19:28.685Z,99467.48
2018-03-29T05:21:56.448Z,99465.58
2018-03-29T05:24:24.199Z,99468.61
2018-03-29T05:26:52.081Z,99474.19
2018-03-29T05:29:19.842Z,99480.95
2018-03-29T05:31:47.547Z,99485.64
2018-03-29T05:34:15.373Z,99484.92
2018-03-29T05:36:43.139Z,99490.22
2018-03-29T05:39:10.844Z,99489.98
2018-03-29T05:41:38.666Z,99496.96
2018-03-29T05:44:06.528Z,99502.83
2018-03-29T05:46:34.244Z,99506.77
2018-03-29T05:49:02.028Z,99511.16
2018-03-29T05:51:29.825Z,99507.47
2018-03-29T05:53:57.648Z,99507.73
2018-03-29T05:56:25.458Z,99507.32
2018-03-29T05:58:53.183Z,99509.62
2018-03-29T06:01:20.986Z,99513.31
2018-03-29T06:03:48.714Z,99512.23
2018-03-29T06:06:16.519Z,99517.50
2018-03-29T06:08:44.342Z,99518.63
2018-03-29T06:11:12.247Z,99522.18
2018-03-29T06:13:40.933Z,99522.11
2018-03-29T06:16:08.703Z,99519.70
2018-03-29T06:18:36.506Z,99526.19
2018-03-29T06:21:04.332Z,99521.70
2018-03-29T06:23:32.201Z,99519.25
2018-03-29T06:25:59.960Z,99521.94
2018-03-29T06:28:27.726Z,99518.92
2018-03-29T06:30:55.441Z,99515.52
2018-03-29T06:33:23.215Z,99523.64
2018-03-29T06:35:51.122Z,99506.82
2018-03-29T06:38:18.840Z,99515.33
2018-03-29T06:40:46.619Z,99504.52
2018-03-29T06:43:14.370Z,99509.82
2018-03-29T06:45:42.078Z,99514.41
2018-03-29T06:48:09.803Z,99512.92
2018-03-29T06:50:37.554Z,99511.20
2018-03-29T06:53:05.371Z,99513.48
2018-03-29T06:55:33.134Z,99515.80
2018-03-29T06:58:00.795Z,99509.81
2018-03-29T07:00:28.560Z,99513.58
2018-03-29T07:02:56.283Z,99522.63
2018-03-29T07:05:23.992Z,99520.86
2018-03-29T07:07:51.709Z,99516.14
2018-03-29T07:10:19.411Z,99523.21
2018-03-29T07:12:47.115Z,99517.86
2018-03-29T07:15:14.783Z,99523.17
2018-03-29T07:17:42.706Z,99523.79
2018-03-29T07:20:10.372Z,99522.36
2018-03-29T07:22:38.188Z,99528.52
2018-03-29T07:25:06.002Z,99531.66
2018-03-29T07:27:33.818Z,99548.72
2018-03-29T07:30:01.631Z,99546.97
2018-03-29T07:32:29.394Z,99545.54
2018-03-29T07:34:57.139Z,99557.66
2018-03-29T07:37:24.923Z,99561.76
2018-03-29T07:39:52.645Z,99563.67
2018-03-29T07:42:20.451Z,99554.34
2018-03-29T07:44:48.216Z,99560.50
2018-03-29T07:47:15.989Z,99563.55
2018-03-29T07:49:43.687Z,99564.39
2018-03-29T07:52:11.507Z,99571.15
2018-03-29T07:54:39.171Z,99572.94
2018-03-29T07:57:06.936Z,99572.59
2018-03-29T07:59:34.701Z,99571.12
2018-03-29T08:02:02.567Z,99565.72
2018-03-29T08:04:30.332Z,99573.16
2018-03-29T08:06:58.096Z,99564.77
2018-03-29T08:09:25.860Z,99574.10
2018-03-29T08:11:53.521Z,99570.29
2018-03-29T08:14:21.332Z,99571.98
2018-03-29T08:16:48.949Z,99575.89
2018-03-29T08:19:16.816Z,99568.41
2018-03-29T08:21:44.597Z,99566.81
2018-03-29T08:24:12.423Z,99563.64
2018-03-29T08:26:40.211Z,99571.11
2018-03-29T08:29:07.974Z,99567.55
2018-03-29T08:31:35.690Z,99565.47
2018-03-29T08:34:03.503Z,99563.70
2018-03-29T08:36:31.271Z,99563.98
2018-03-29T08:38:59.136Z,99563.17
2018-03-29T08:41:26.854Z,99562.33
2018-03-29T08:43:54.667Z,99564.92
2018-03-29T08:46:22.430Z,99563.53
2018-03-29T08:48:50.296Z,99567.32
2018-03-29T08:51:17.997Z,99562.70
2018-03-29T08:53:45.729Z,99566.20
2018-03-29T08:56:13.391Z,99554.84
2018-03-29T08:58:41.104Z,99562.67
2018-03-29T09:01:08.912Z,99562.77
2018-03-29T09:03:36.631Z,99562.97
2018-03-29T09:06:04.395Z,99560.25
2018-03-29T09:08:32.103Z,99559.81
2018-03-29T09:10:59.972Z,99563.33
2018-03-29T09:13:27.696Z,99555.32
2018-03-29T09:15:55.399Z,99563.78
2018-03-29T09:18:23.169Z,99556.52
2018-03-29T09:20:51.137Z,99560.91
2018-03-29T09:23:18.791Z,99561.39
2018-03-29T09:25:46.664Z,99553.98
2018-03-29T09:28:14.423Z,99550.13
2018-03-29T09:30:42.188Z,99557.52
2018-03-29T09:33:09.951Z,99554.95
2018-03-29T09:35:37.652Z,99552.05
2018-03-29T09:38:05.383Z,99552.09
2018-03-29T09:40:33.326Z,99554.41
2018-03-29T09:43:01.112Z,99548.86
2018-03-29T09:45:28.878Z,99549.16
2018-03-29T09:47:56.624Z,99549.49
2018-03-29T09:50:24.373Z,99546.13
2018-03-29T09:52:52.113Z,99545.67
2018-03-29T09:55:19.932Z,99547.03
2018-03-29T09:57:47.600Z,99546.91
2018-03-29T10:00:15.468Z,99555.12
2018-03-29T10:02:48.758Z,99549.43
2018-03-29T10:05:16.419Z,99544.62
2018-03-29T10:07:44.285Z,99552.39
2018-03-29T10:10:12.050Z,99548.19
2018-03-29T10:12:39.917Z,99553.50
2018-03-29T10:15:07.680Z,99550.83
2018-03-29T10:17:35.551Z,99555.33
2018-03-29T10:20:03.320Z,99551.30
2018-03-29T10:22:31.076Z,99544.23
2018-03-29T10:24:58.948Z,99557.27
2018-03-29T10:27:26.669Z,99556.84
2018-03-29T10:29:54.478Z,99547.95
2018-03-29T10:32:22.235Z,99552.08
2018-03-29T10:34:49.944Z,99546.31
2018-03-29T10:37:17.760Z,99547.62
2018-03-29T10:39:45.427Z,99546.28
2018-03-29T10:42:13.192Z,99536.14
2018-03-29T10:44:40.861Z,99542.00
2018-03-29T10:47:08.722Z,99540.43
2018-03-29T10:49:36.442Z,99536.62
2018-03-29T10:52:04.256Z,99528.70
2018-03-29T10:54:32.116Z,99540.06
2018-03-29T10:56:59.781Z,99530.81
2018-03-29T10:59:27.555Z,99527.22
2018-03-29T11:01:55.307Z,99531.88
2018-03-29T11:04:23.044Z,99529.07
2018-03-29T11:06:50.835Z,99526.81
2018-03-29T11:09:18.497Z,99526.83
2018-03-29T11:11:46.223Z,99531.91
2018-03-29T11:14:14.027Z,99532.05
2018-03-29T11:16:41.755Z,99535.90
2018-03-29T11:19:09.555Z,99531.91
2018-03-29T11:21:37.211Z,99534.30
2018-03-29T11:24:04.925Z,99520.97
2018-03-29T11:26:32.625Z,99525.30
2018-03-29T11:29:00.309Z,99523.40
2018-03-29T11:31:28.024Z,99511.67
2018-03-29T11:33:55.735Z,99516.71
2018-03-29T11:36:23.497Z,99518.69
2018-03-29T11:38:51.416Z,99530.36
2018-03-29T11:41:19.092Z,99522.21
2018-03-29T11:43:46.996Z,99514.13
2018-03-29T11:46:14.823Z,99520.38
2018-03-29T11:48:42.628Z,99518.91
2018-03-29T11:51:10.482Z,99525.69
2018-03-29T11:53:38.154Z,99524.17
2018-03-29T11:56:06.123Z,99513.89
2018-03-29T11:58:33.779Z,99512.72
2018-03-29T12:01:01.555Z,99520.22
2018-03-29T12:03:29.268Z,99511.89
2018-03-29T12:05:56.977Z,99506.96
2018-03-29T12:08:24.695Z,99500.27
2018-03-29T12:10:52.504Z,99507.50
2018-03-29T12:13:20.334Z,99502.20
2018-03-29T12:15:48.140Z,99497.36
2018-03-29T12:18:15.794Z,99508.09
2018-03-29T12:20:43.664Z,99500.76
2018-03-29T12:23:11.415Z,99499.06
2018-03-29T12:25:39.195Z,99489.56
2018-03-29T12:28:07.059Z,99486.10
2018-03-29T12:30:34.826Z,99486.75
2018-03-29T12:33:02.673Z,99483.42
2018-03-29T12:35:30.451Z,99493.49
2018-03-29T12:37:58.220Z,99487.98
2018-03-29T12:40:26.089Z,99501.27
2018-03-29T12:42:53.928Z,99492.41
2018-03-29T12:45:21.796Z,99507.45
2018-03-29T12:47:49.539Z,99503.07
2018-03-29T12:50:17.359Z,99501.91
2018-03-29T12:52:45.216Z,99501.03
2018-03-29T12:55:24.760Z,99497.34
2018-03-29T12:58:04.399Z,99499.98
2018-03-29T13:00:32.164Z,99494.91
2018-03-29T13:02:59.902Z,99500.62
2018-03-29T13:05:27.692Z,99494.98
2018-03-29T13:07:55.423Z,99491.09
2018-03-29T13:10:23.118Z,99495.19
2018-03-29T13:12:51.089Z,99494.00
2018-03-29T13:15:18.852Z,99492.64
2018-03-29T13:17:46.572Z,99485.42
2018-03-29T13:20:14.386Z,99481.63
2018-03-29T13:22:42.250Z,99481.61
2018-03-29T13:25:10.007Z,99474.76
2018-03-29T13:27:37.882Z,99470.20
2018-03-29T13:30:05.644Z,99462.55
2018-03-29T13:32:33.408Z,99467.32
2018-03-29T13:35:01.275Z,99469.75
2018-03-29T13:37:29.038Z,99462.70
2018-03-29T13:39:56.835Z,99462.14
2018-03-29T13:42:24.568Z,99462.84
2018-03-29T13:44:52.329Z,99460.87
2018-03-29T13:47:20.004Z,99450.11
2018-03-29T13:49:47.805Z,99444.26
2018-03-29T13:52:15.572Z,99447.91
2018-03-29T13:54:43.393Z,99438.83
2018-03-29T13:57:11.104Z,99435.38
2018-03-29T13:59:38.858Z,99439.05
2018-03-29T14:02:06.545Z,99445.52
2018-03-29T14:04:34.348Z,99448.84
2018-03-29T14:07:02.017Z,99436.66
2018-03-29T14:09:29.874Z,99445.20
2018-03-29T14:11:57.576Z,99446.35
2018-03-29T14:14:25.301Z,99441.13
2018-03-29T14:16:53.013Z,99443.22
2018-03-29T14:19:20.828Z,99439.11
2018-03-29T14:21:48.597Z,99448.11
2018-03-29T14:24:16.257Z,99435.33
2018-03-29T14:26:44.021Z,99432.52
2018-03-29T14:29:11.747Z,99441.28
2018-03-29T14:31:39.492Z,99436.41
2018-03-29T14:34:07.109Z,99431.24
2018-03-29T14:36:35.076Z,99427.61
2018-03-29T14:39:02.845Z,99428.11
2018-03-29T14:41:30.767Z,99424.11
2018-03-29T14:43:58.576Z,99430.11
2018-03-29T14:46:26.443Z,99428.91
2018-03-29T14:48:54.154Z,99431.75
2018-03-29T14:51:21.972Z,99421.56
2018-03-29T14:53:49.694Z,99427.55
2018-03-29T14:56:17.502Z,99421.03
2018-03-29T14:58:45.343Z,99425.19
2018-03-29T15:01:13.134Z,99427.50
2018-03-29T15:03:40.983Z,99419.59
2018-03-29T15:06:08.660Z,99411.55
2018-03-29T15:08:36.528Z,99418.39
2018-03-29T15:11:04.288Z,99415.69
2018-03-29T15:13:32.024Z,99421.89
2018-03-29T15:15:59.719Z,99417.45
2018-03-29T15:18:27.595Z,99412.19
2018-03-29T15:20:55.349Z,99414.70
2018-03-29T15:23:23.219Z,99404.21
2018-03-29T15:25:50.980Z,99406.93
2018-03-29T15:28:18.696Z,99408.37
2018-03-29T15:30:46.510Z,99397.14
2018-03-29T15:33:14.279Z,99403.15
2018-03-29T15:35:42.043Z,99402.55
2018-03-29T15:38:09.876Z,99409.09
2018-03-29T15:40:37.630Z,99396.67
2018-03-29T15:43:05.841Z,99402.78
2018-03-29T15:45:33.565Z,99395.73
2018-03-29T15:48:01.371Z,99391.54
2018-03-29T15:50:29.094Z,99392.70
2018-03-29T15:52:56.900Z,99392.48
2018-03-29T15:55:24.667Z,99390.59
2018-03-29T15:57:52.327Z,99389.07
2018-03-29T16:00:19.991Z,99390.98
2018-03-29T16:02:47.754Z,99389.52
2018-03-29T16:05:15.415Z,99378.14
2018-03-29T16:07:43.241Z,99385.71
2018-03-29T16:10:11.049Z,99380.25
2018-03-29T16:12:38.960Z,99382.84
2018-03-29T16:15:06.676Z,99386.45
2018-03-29T16:17:34.525Z,99378.75
2018-03-29T16:20:02.412Z,99384.95
2018-03-29T16:22:30.137Z,99396.27
2018-03-29T16:24:57.941Z,99390.73
2018-03-29T16:27:25.711Z,99397.75
2018-03-29T16:29:53.570Z,99401.44
2018-03-29T16:32:21.275Z,99392.33
2018-03-29T16:34:49.096Z,99399.78
2018-03-29T16:37:16.868Z,99397.13
2018-03-29T16:39:44.626Z,99400.71
2018-03-29T16:42:12.396Z,99399.66
2018-03-29T16:44:40.160Z,99405.70
2018-03-29T16:47:08.025Z,99398.19
2018-03-29T16:49:35.788Z,99405.05
2018-03-29T16:52:03.553Z,99409.26
2018-03-29T16:54:31.318Z,99413.92
2018-03-29T16:56:58.980Z,99411.67
2018-03-29T16:59:26.696Z,99412.80
2018-03-29T17:01:54.505Z,99412.67
2018-03-29T17:04:22.277Z,99417.78
2018-03-29T17:06:50.250Z,99417.45
2018-03-29T17:09:18.045Z,99420.13
2018-03-29T17:11:45.878Z,99420.80
2018-03-29T17:14:13.640Z,99428.03
2018-03-29T17:16:41.448Z,99423.30
2018-03-29T17:19:09.271Z,99432.66
2018-03-29T17:21:37.114Z,99441.58
2018-03-29T17:24:04.846Z,99441.44
2018-03-29T17:26:32.779Z,99438.72
2018-03-29T17:29:00.523Z,99444.67
2018-03-29T17:31:28.345Z,99442.83
2018-03-29T17:33:56.264Z,99449.25
2018-03-29T17:36:23.978Z,99452.54
2018-03-29T17:38:51.801Z,99450.42
2018-03-29T17:41:19.782Z,99445.97
2018-03-29T17:43:47.526Z,99451.22
2018-03-29T17:46:15.349Z,99454.80
2018-03-29T17:48:43.054Z,99459.23
2018-03-29T17:51:10.781Z,99468.72
2018-03-29T17:53:38.588Z,99467.30
2018-03-29T17:56:06.440Z,99468.89
2018-03-29T17:58:34.111Z,99470.85
2018-03-29T18:01:01.879Z,99477.41
2018-03-29T18:03:29.747Z,99481.94
2018-03-29T18:05:57.457Z,99480.48
2018-03-29T18:08:25.375Z,99483.51
2018-03-29T18:10:53.211Z,99493.83
2018-03-29T18:13:20.905Z,99494.25
2018-03-29T18:15:48.668Z,99487.19
2018-03-29T18:18:16.434Z,99483.33
2018-03-29T18:20:44.151Z,99484.39
2018-03-29T18:23:11.972Z,99486.67
2018-03-29T18:25:39.627Z,99488.48
2018-03-29T18:28:07.389Z,99497.03
2018-03-29T18:30:35.259Z,99494.02
2018-03-29T18:33:03.092Z,99482.81
2018-03-29T18:35:30.888Z,99492.50
2018-03-29T18:37:58.695Z,99482.07
2018-03-29T18:40:26.517Z,99492.92
2018-03-29T18:42:54.286Z,99504.12
2018-03-29T18:45:22.046Z,99513.39
2018-03-29T18:47:49.811Z,99511.38
2018-03-29T18:50:17.582Z,99519.39
2018-03-29T18:52:45.294Z,99518.36
2018-03-29T18:55:13.105Z,99519.78
2018-03-29T18:57:40.869Z,99523.55
2018-03-29T19:00:08.625Z,99517.73
2018-03-29T19:02:36.360Z,99529.16
2018-03-29T19:05:04.161Z,99528.22
2018-03-29T19:07:31.926Z,99529.06
2018-03-29T19:09:59.796Z,99532.30
2018-03-29T19:12:27.509Z,99524.97
2018-03-29T19:14:55.319Z,99521.42
2018-03-29T19:17:23.135Z,99520.89
2018-03-29T19:19:50.951Z,99525.05
2018-03-29T19:22:18.668Z,99522.73
2018-03-29T19:24:46.481Z,99516.00
2018-03-29T19:27:14.256Z,99518.77
2018-03-29T19:29:42.112Z,99514.55
2018-03-29T19:32:09.844Z,99508.34
2018-03-29T19:34:37.646Z,99506.84
2018-03-29T19:37:05.395Z,99510.11
2018-03-29T19:39:33.111Z,99518.02
2018-03-29T19:42:00.872Z,99517.80
2018-03-29T19:44:28.588Z,99523.27
2018-03-29T19:46:56.261Z,99526.00
2018-03-29T19:49:24.023Z,99533.11
2018-03-29T19:51:51.890Z,99537.95
2018-03-29T19:54:19.657Z,99541.83
2018-03-29T19:56:47.523Z,99543.94
2018-03-29T19:59:15.285Z,99549.45
2018-03-29T20:01:43.153Z,99547.30
2018-03-29T20:04:10.926Z,99544.42
2018-03-29T20:06:38.766Z,99553.08
2018-03-29T20:09:06.546Z,99556.26
2018-03-29T20:11:34.312Z,99556.34
2018-03-29T20:14:02.180Z,99566.66
2018-03-29T20:16:29.906Z,99566.41
2018-03-29T20:18:57.672Z,99565.84
2018-03-29T20:21:25.474Z,99567.03
2018-03-29T20:23:53.237Z,99569.86
2018-03-29T20:26:21.103Z,99559.90
2018-03-29T20:28:48.770Z,99559.25
2018-03-29T20:31:16.505Z,99564.67
2018-03-29T20:33:44.251Z,99557.38
2018-03-29T20:36:11.958Z,99555.91
2018-03-29T20:38:39.823Z,99553.61
2018-03-29T20:41:07.570Z,99561.52
2018-03-29T20:43:35.320Z,99558.94
2018-03-29T20:46:03.116Z,99558.73
2018-03-29T20:48:30.946Z,99555.22
2018-03-29T20:50:58.748Z,99556.03
2018-03-29T20:53:26.617Z,99556.71
2018-03-29T20:55:54.358Z,99549.42
2018-03-29T20:58:22.089Z,99549.09
2018-03-29T21:00:49.804Z,99551.19
2018-03-29T21:03:17.498Z,99552.56
2018-03-29T21:05:45.231Z,99551.19
2018-03-29T21:08:13.201Z,99550.34
2018-03-29T21:10:40.964Z,99544.48
2018-03-29T21:13:08.734Z,99543.77
2018-03-29T21:15:36.456Z,99542.29
2018-03-29T21:18:04.258Z,99553.50
2018-03-29T21:20:32.023Z,99546.23
2018-03-29T21:22:59.685Z,99548.75
2018-03-29T21:25:27.455Z,99546.38
2018-03-29T21:27:55.259Z,99545.27
2018-03-29T21:30:22.977Z,99549.03
2018-03-29T21:32:50.639Z,99554.27
2018-03-29T21:35:18.458Z,99553.48
2018-03-29T21:37:46.174Z,99562.56
2018-03-29T21:40:13.991Z,99564.12
2018-03-29T21:42:41.702Z,99561.77
2018-03-29T21:45:09.424Z,99569.09
2018-03-29T21:47:37.159Z,99563.81
2018-03-29T21:50:04.887Z,99570.45
2018-03-29T21:52:32.560Z,99568.78
2018-03-29T21:55:00.519Z,99560.51
2018-03-29T21:57:28.285Z,99562.14
2018-03-29T21:59:56.150Z,99558.41
2018-03-29T22:02:23.830Z,99562.54
2018-03-29T22:04:51.576Z,99569.34
2018-03-29T22:07:19.341Z,99567.89
2018-03-29T22:09:47.063Z,99570.86
2018-03-29T22:12:14.768Z,99575.70
2018-03-29T22:14:42.429Z,99577.11
2018-03-29T22:17:10.192Z,99575.37
2018-03-29T22:19:37.846Z,99581.86
2018-03-29T22:22:05.722Z,99575.48
2018-03-29T22:24:33.474Z,99578.70
2018-03-29T22:27:01.252Z,99567.56
2018-03-29T22:29:28.924Z,99565.81
2018-03-29T22:31:56.795Z,99562.27
2018-03-29T22:34:24.469Z,99568.82
2018-03-29T22:36:52.215Z,99564.03
2018-03-29T22:39:19.866Z,99566.43
2018-03-29T22:41:47.632Z,99559.61
2018-03-29T22:44:15.397Z,99565.35
2018-03-29T22:46:43.108Z,99568.02
2018-03-29T22:49:10.925Z,99564.11
2018-03-29T22:51:38.641Z,99566.05
2018-03-29T22:54:06.453Z,99566.00
2018-03-29T22:56:34.116Z,99565.08
2018-03-29T22:59:01.843Z,99562.98
2018-03-29T23:01:29.634Z,99558.41
2018-03-29T23:03:57.415Z,99557.91
2018-03-29T23:06:25.276Z,99553.66
2018-03-29T23:08:53.040Z,99552.09
2018-03-29T23:11:20.907Z,99543.97
2018-03-29T23:13:48.672Z,99545.16
2018-03-29T23:16:16.503Z,99540.88
2018-03-29T23:18:44.248Z,99556.48
2018-03-29T23:21:12.068Z,99555.11
2018-03-29T23:23:39.729Z,99561.80
2018-03-29T23:26:07.446Z,99550.63
2018-03-29T23:28:35.259Z,99545.95
2018-03-29T23:31:02.979Z,99543.01
2018-03-29T23:33:30.685Z,99540.83
2018-03-29T23:35:58.390Z,99542.98
2018-03-29T23:38:26.216Z,99547.27
2018-03-29T23:40:53.921Z,99548.27
2018-03-29T23:43:21.693Z,99537.83
2018-03-29T23:45:49.396Z,99544.11
2018-03-29T23:48:17.125Z,99545.25
2018-03-29T23:50:44.935Z,99545.52
2018-03-29T23:53:12.697Z,99547.61
2018-03-29T23:55:40.360Z,99539.66
2018-03-29T23:58:18.201Z,99539.72
